Time;durP1;ratioP1;P1;durP2;ratioP2;P2;SDS_P1;SDS_P2;PMS_P1;PMS_P2;Temp;Humidity;BMP_temperature;BMP_pressure;BME280_temperature;BME280_humidity;BME280_pressure;Samples;Min_cycle;Max_cycle;Signal;HPM_P1;HPM_P2
2022/08/20 00:01:00;;;;;;;15.73;14.00;;;;;;;16.25;100.00;96481.00;5081554;28;20280;-79
2022/08/20 00:03:30;;;;;;;19.33;16.03;;;;;;;16.25;100.00;96481.00;5086947;28;20209;-79
2022/08/20 00:06:01;;;;;;;21.50;15.77;;;;;;;16.20;100.00;96479.09;5073699;28;20228;-79
2022/08/20 00:08:29;;;;;;;19.23;15.63;;;;;;;16.17;100.00;96479.59;5081815;28;20232;-79
2022/08/20 00:10:57;;;;;;;21.57;15.67;;;;;;;16.25;100.00;96486.47;5070296;28;20226;-78
2022/08/20 00:13:27;;;;;;;15.97;13.63;;;;;;;16.26;100.00;96478.03;5085351;28;20291;-79
2022/08/20 00:15:54;;;;;;;18.30;14.60;;;;;;;16.18;100.00;96472.25;5087398;28;20233;-78
2022/08/20 00:18:23;;;;;;;22.50;15.80;;;;;;;16.11;100.00;96480.66;5086113;28;20197;-78
2022/08/20 00:20:53;;;;;;;22.83;17.30;;;;;;;16.05;100.00;96481.72;5077770;28;20210;-78
2022/08/20 00:23:22;;;;;;;22.33;16.53;;;;;;;16.14;100.00;96492.94;5081563;28;20216;-78
2022/08/20 00:25:51;;;;;;;23.97;17.73;;;;;;;16.11;100.00;96483.38;5081070;28;20251;-79
2022/08/20 00:28:18;;;;;;;24.07;17.37;;;;;;;16.08;100.00;96488.53;5083472;28;20243;-78
2022/08/20 00:30:46;;;;;;;19.70;15.73;;;;;;;16.10;100.00;96497.25;5084219;28;20490;-79
2022/08/20 00:33:15;;;;;;;21.20;15.87;;;;;;;16.15;100.00;96498.13;5089266;28;20196;-79
2022/08/20 00:35:46;;;;;;;19.93;15.83;;;;;;;16.08;100.00;96491.25;5080903;28;20201;-78
2022/08/20 00:38:14;;;;;;;20.03;16.20;;;;;;;16.12;100.00;96500.56;5080079;28;20232;-79
2022/08/20 00:40:46;;;;;;;17.47;14.93;;;;;;;16.13;100.00;96497.56;5091074;28;20312;-79
2022/08/20 00:43:31;;;;;;;20.37;16.40;;;;;;;16.08;100.00;96499.41;5077049;28;20260;-79
2022/08/20 00:46:00;;;;;;;19.43;15.70;;;;;;;16.07;100.00;96500.53;5077880;28;20281;-78
2022/08/20 00:48:30;;;;;;;17.93;14.67;;;;;;;16.08;100.00;96494.78;5081947;28;20208;-78
2022/08/20 00:51:04;;;;;;;19.27;15.53;;;;;;;16.07;100.00;96489.63;5074016;28;20208;-79
2022/08/20 00:53:33;;;;;;;17.80;13.83;;;;;;;16.08;100.00;96492.06;5075460;28;20208;-78
2022/08/20 00:56:01;;;;;;;19.00;14.40;;;;;;;16.09;100.00;96491.00;5085299;28;20282;-78
2022/08/20 00:58:29;;;;;;;19.33;15.50;;;;;;;15.99;100.00;96481.94;5077859;28;20204;-78
2022/08/20 01:00:57;;;;;;;18.43;15.20;;;;;;;16.01;100.00;96482.47;5080253;28;20209;-78
2022/08/20 01:03:24;;;;;;;17.17;13.27;;;;;;;15.98;100.00;96477.56;5075753;28;20208;-79
2022/08/20 01:05:52;;;;;;;15.90;13.17;;;;;;;15.93;100.00;96477.53;5076487;28;20228;-78
2022/08/20 01:08:23;;;;;;;17.13;14.17;;;;;;;15.98;100.00;96486.56;5080089;28;20212;-79
2022/08/20 01:10:52;;;;;;;20.97;16.43;;;;;;;15.97;100.00;96482.19;5073132;28;20222;-78
2022/08/20 01:13:24;;;;;;;22.00;15.40;;;;;;;15.97;100.00;96484.94;5086767;28;20255;-78
2022/08/20 01:15:55;;;;;;;19.00;14.10;;;;;;;15.98;100.00;96485.75;5075351;28;20235;-78
2022/08/20 01:18:27;;;;;;;16.03;12.20;;;;;;;15.96;100.00;96479.72;5073361;28;20213;-78
2022/08/20 01:20:58;;;;;;;20.00;15.23;;;;;;;15.96;100.00;96483.28;5082733;28;20197;-78
2022/08/20 01:23:35;;;;;;;21.50;15.77;;;;;;;15.93;100.00;96482.97;5076085;28;20280;-79
2022/08/20 01:26:08;;;;;;;18.97;14.83;;;;;;;15.92;100.00;96482.16;5082881;28;20220;-78
2022/08/20 01:28:39;;;;;;;14.30;12.20;;;;;;;15.94;100.00;96484.59;5078028;28;20201;-78
2022/08/20 01:31:09;;;;;;;17.90;13.23;;;;;;;15.89;100.00;96477.25;5074615;28;20213;-78
2022/08/20 01:33:36;;;;;;;16.07;13.63;;;;;;;15.88;100.00;96475.59;5070071;28;20210;-77
2022/08/20 01:36:05;;;;;;;15.27;12.77;;;;;;;15.83;100.00;96467.38;5088844;28;20201;-78
2022/08/20 01:38:32;;;;;;;17.37;13.33;;;;;;;15.88;100.00;96475.59;5079361;28;20209;-79
2022/08/20 01:41:39;;;;;;;16.37;13.77;;;;;;;15.94;100.00;96476.44;5086259;28;20209;-78
2022/08/20 01:44:08;;;;;;;17.77;13.10;;;;;;;15.92;100.00;96473.16;5077746;28;20217;-78
2022/08/20 01:46:39;;;;;;;18.33;13.20;;;;;;;15.86;100.00;96466.84;5083174;28;20221;-78
2022/08/20 01:49:14;;;;;;;14.47;12.27;;;;;;;15.82;100.00;96473.91;5086973;28;20254;-79
2022/08/20 01:51:42;;;;;;;15.13;11.70;;;;;;;15.79;100.00;96477.97;5087755;28;20312;-78
2022/08/20 01:54:09;;;;;;;11.17;9.33;;;;;;;15.82;100.00;96472.00;5077745;28;20205;-79
2022/08/20 01:56:50;;;;;;;13.33;10.43;;;;;;;15.81;100.00;96481.25;5075345;28;20237;-78
2022/08/20 01:59:18;;;;;;;15.60;11.53;;;;;;;15.75;100.00;96485.00;5082265;28;20239;-78
2022/08/20 02:01:45;;;;;;;19.27;14.03;;;;;;;15.67;100.00;96480.03;5081617;28;20204;-78
2022/08/20 02:04:13;;;;;;;16.53;12.77;;;;;;;15.62;100.00;96477.28;5075922;28;20292;-78
2022/08/20 02:06:42;;;;;;;16.57;13.20;;;;;;;15.64;100.00;96479.75;5078948;28;20248;-78
2022/08/20 02:09:11;;;;;;;11.77;9.43;;;;;;;15.67;100.00;96485.47;5076387;28;20202;-78
2022/08/20 02:11:39;;;;;;;10.47;9.17;;;;;;;15.66;100.00;96483.00;5084749;28;20197;-78
2022/08/20 02:14:08;;;;;;;12.97;9.83;;;;;;;15.60;100.00;96478.63;5083918;28;20224;-79
2022/08/20 02:16:39;;;;;;;11.50;9.50;;;;;;;15.58;100.00;96470.69;5081792;28;20209;-78
2022/08/20 02:19:11;;;;;;;12.30;8.97;;;;;;;15.60;100.00;96476.72;5079369;28;20296;-78
2022/08/20 02:21:43;;;;;;;10.10;7.93;;;;;;;15.58;100.00;96481.59;5089659;28;20198;-79
2022/08/20 02:24:10;;;;;;;10.33;8.53;;;;;;;15.57;100.00;96482.66;5081877;28;20208;-79
2022/08/20 02:26:37;;;;;;;10.53;9.30;;;;;;;15.55;100.00;96486.75;5077449;28;20223;-78
2022/08/20 02:29:07;;;;;;;10.77;9.50;;;;;;;15.54;100.00;96485.91;5083046;28;20201;-79
2022/08/20 02:31:37;;;;;;;11.03;9.60;;;;;;;15.53;100.00;96476.09;5087241;28;20232;-78
2022/08/20 02:34:08;;;;;;;10.30;8.00;;;;;;;15.58;100.00;96487.03;5082723;28;20232;-78
2022/08/20 02:36:36;;;;;;;9.57;7.43;;;;;;;15.56;100.00;96472.88;5080539;28;20235;-78
2022/08/20 02:39:06;;;;;;;10.67;8.37;;;;;;;15.51;100.00;96479.06;5083402;28;20205;-78
2022/08/20 02:41:33;;;;;;;9.10;7.63;;;;;;;15.51;100.00;96472.78;5079661;28;20206;-78
2022/08/20 02:44:00;;;;;;;9.40;6.97;;;;;;;15.54;100.00;96485.09;5080056;28;20201;-78
2022/08/20 02:46:28;;;;;;;9.27;7.20;;;;;;;15.51;100.00;96484.50;5079628;28;20271;-78
2022/08/20 02:48:58;;;;;;;9.23;7.90;;;;;;;15.46;100.00;96479.03;5075172;28;20200;-78
2022/08/20 02:51:25;;;;;;;9.50;8.10;;;;;;;15.45;100.00;96471.09;5089120;28;20209;-78
2022/08/20 02:53:52;;;;;;;11.07;7.53;;;;;;;15.43;100.00;96468.63;5083444;28;20201;-78
2022/08/20 02:56:20;;;;;;;8.27;6.83;;;;;;;15.43;100.00;96462.38;5079756;28;20240;-78
2022/08/20 02:58:47;;;;;;;9.30;7.63;;;;;;;15.38;100.00;96456.91;5090032;28;20200;-78
2022/08/20 03:01:16;;;;;;;8.67;7.73;;;;;;;15.29;100.00;96442.94;5079365;28;20205;-78
2022/08/20 03:03:44;;;;;;;9.37;8.33;;;;;;;15.36;100.00;96445.44;5072546;28;20279;-78
2022/08/20 03:06:13;;;;;;;10.73;7.97;;;;;;;15.34;100.00;96436.72;5074667;28;20228;-78
2022/08/20 03:08:41;;;;;;;9.47;7.70;;;;;;;15.36;100.00;96437.28;5074096;28;20205;-78
2022/08/20 03:11:08;;;;;;;8.97;7.60;;;;;;;15.29;100.00;96444.84;5076743;28;20487;-78
2022/08/20 03:13:36;;;;;;;9.73;7.70;;;;;;;15.26;100.00;96442.63;5076539;28;20201;-78
2022/08/20 03:16:04;;;;;;;9.80;7.90;;;;;;;15.21;100.00;96437.16;5090568;28;20237;-77
2022/08/20 03:18:35;;;;;;;12.27;8.00;;;;;;;15.23;100.00;96440.41;5073185;28;20217;-78
2022/08/20 03:21:02;;;;;;;10.07;8.40;;;;;;;15.27;100.00;96445.09;5082625;28;20199;-78
2022/08/20 03:23:30;;;;;;;9.63;7.80;;;;;;;15.31;100.00;96453.56;5079002;28;20211;-78
2022/08/20 03:25:58;;;;;;;8.93;7.93;;;;;;;15.34;100.00;96444.88;5076677;28;20250;-78
2022/08/20 03:28:25;;;;;;;9.93;8.53;;;;;;;15.25;100.00;96444.50;5084847;28;20209;-78
2022/08/20 03:30:53;;;;;;;8.23;7.10;;;;;;;15.27;100.00;96442.38;5080109;28;20228;-78
2022/08/20 03:33:21;;;;;;;9.90;7.17;;;;;;;15.31;100.00;96442.69;5077881;28;20209;-78
2022/08/20 03:35:48;;;;;;;8.63;6.47;;;;;;;15.26;100.00;96446.16;5079951;28;20359;-79
2022/08/20 03:38:18;;;;;;;9.63;6.00;;;;;;;15.22;100.00;96444.22;5077614;28;20210;-78
2022/08/20 03:40:48;;;;;;;7.00;6.30;;;;;;;15.17;100.00;96436.00;5084671;28;20251;-78
2022/08/20 03:43:15;;;;;;;9.27;6.00;;;;;;;15.21;100.00;96434.41;5075474;28;20307;-78
2022/08/20 03:45:44;;;;;;;7.47;6.30;;;;;;;15.26;100.00;96429.84;5081914;28;20217;-78
2022/08/20 03:48:15;;;;;;;7.83;6.40;;;;;;;15.28;100.00;96440.47;5073551;28;20223;-77
2022/08/20 03:50:42;;;;;;;8.83;5.87;;;;;;;15.25;100.00;96427.38;5092038;28;20204;-78
2022/08/20 03:53:10;;;;;;;9.47;5.50;;;;;;;15.36;100.00;96429.13;5085038;28;20200;-77
2022/08/20 03:55:38;;;;;;;7.83;5.83;;;;;;;15.24;100.00;96418.38;5077704;28;20201;-78
2022/08/20 03:58:09;;;;;;;7.57;6.00;;;;;;;15.21;100.00;96424.38;5082512;28;20197;-78
2022/08/20 04:00:40;;;;;;;7.10;5.80;;;;;;;15.18;100.00;96418.59;5087657;28;20220;-78
2022/08/20 04:03:08;;;;;;;7.57;5.77;;;;;;;15.11;100.00;96416.09;5082175;28;20266;-79
2022/08/20 04:05:39;;;;;;;9.47;8.10;;;;;;;15.12;100.00;96415.03;5083412;28;20285;-78
2022/08/20 04:08:07;;;;;;;9.03;7.20;;;;;;;15.10;100.00;96419.91;5074760;28;20221;-78
2022/08/20 04:10:34;;;;;;;9.20;7.63;;;;;;;15.06;100.00;96421.47;5081582;28;20345;-78
2022/08/20 04:13:01;;;;;;;12.00;7.40;;;;;;;14.99;100.00;96416.25;5070525;28;20216;-78
2022/08/20 04:15:31;;;;;;;10.70;7.07;;;;;;;15.01;100.00;96416.81;5078907;28;20233;-78
2022/08/20 04:17:58;;;;;;;11.60;7.53;;;;;;;14.97;100.00;96421.09;5089270;28;20220;-77
2022/08/20 04:20:26;;;;;;;10.60;7.00;;;;;;;14.98;100.00;96420.03;5080016;28;20262;-78
2022/08/20 04:22:54;;;;;;;9.40;7.10;;;;;;;15.04;100.00;96429.91;5081545;28;20201;-78
2022/08/20 04:25:22;;;;;;;8.00;7.17;;;;;;;14.94;100.00;96426.25;5076049;28;20197;-78
2022/08/20 04:27:50;;;;;;;9.67;7.87;;;;;;;14.90;100.00;96431.38;5077671;28;20211;-78
2022/08/20 04:30:19;;;;;;;8.90;6.97;;;;;;;14.91;100.00;96427.59;5083621;28;20213;-77
2022/08/20 04:32:48;;;;;;;8.63;7.30;;;;;;;14.92;100.00;96429.22;5078182;28;20316;-77
2022/08/20 04:35:16;;;;;;;8.27;6.77;;;;;;;14.97;100.00;96431.19;5076831;28;20208;-77
2022/08/20 04:37:44;;;;;;;8.13;6.53;;;;;;;14.98;100.00;96422.75;5085127;28;20204;-77
2022/08/20 04:43:03;;;;;;;8.50;6.57;;;;;;;14.94;100.00;96431.69;5078543;28;20212;-78
2022/08/20 04:45:30;;;;;;;7.27;5.90;;;;;;;14.97;100.00;96428.47;5079497;28;20287;-78
2022/08/20 04:48:04;;;;;;;6.87;6.17;;;;;;;14.99;100.00;96427.13;5083115;28;20212;-78
2022/08/20 04:50:34;;;;;;;6.57;5.73;;;;;;;15.07;100.00;96434.81;5081899;28;20232;-78
2022/08/20 04:53:01;;;;;;;7.03;6.17;;;;;;;15.05;100.00;96428.84;5081522;28;20205;-78
2022/08/20 04:55:29;;;;;;;8.30;6.13;;;;;;;15.06;100.00;96430.44;5069454;28;20197;-78
2022/08/20 04:57:56;;;;;;;7.70;6.20;;;;;;;15.10;100.00;96426.16;5077077;28;20205;-78
2022/08/20 05:00:23;;;;;;;6.23;5.60;;;;;;;15.08;100.00;96430.19;5076216;28;20245;-78
2022/08/20 05:02:50;;;;;;;6.87;5.70;;;;;;;15.07;100.00;96428.56;5072018;28;20205;-77
2022/08/20 05:05:21;;;;;;;6.23;5.57;;;;;;;15.03;100.00;96432.88;5079723;28;20204;-77
2022/08/20 05:07:48;;;;;;;7.83;5.90;;;;;;;15.05;100.00;96428.84;5079112;28;20261;-77
2022/08/20 05:10:18;;;;;;;6.37;5.07;;;;;;;15.11;100.00;96427.81;5079219;28;20236;-78
2022/08/20 05:12:46;;;;;;;6.93;5.47;;;;;;;15.13;100.00;96425.66;5077104;28;20212;-77
2022/08/20 05:15:13;;;;;;;6.40;5.50;;;;;;;15.18;100.00;96437.66;5078395;28;20240;-77
2022/08/20 05:17:41;;;;;;;5.67;5.17;;;;;;;15.19;100.00;96439.28;5086825;28;20288;-78
2022/08/20 05:20:12;;;;;;;5.77;5.20;;;;;;;15.27;100.00;96447.81;5082707;28;20205;-77
2022/08/20 05:22:40;;;;;;;5.80;4.87;;;;;;;15.30;100.00;96454.66;5078910;28;20201;-78
2022/08/20 05:25:08;;;;;;;5.90;5.30;;;;;;;15.35;100.00;96455.50;5075907;28;20212;-78
2022/08/20 05:27:35;;;;;;;7.50;6.17;;;;;;;15.37;100.00;96464.22;5081931;28;20228;-78
2022/08/20 05:30:05;;;;;;;7.60;5.87;;;;;;;15.38;100.00;96476.75;5082954;28;20196;-78
2022/08/20 05:32:34;;;;;;;8.33;5.53;;;;;;;15.39;100.00;96485.75;5083576;28;20283;-78
2022/08/20 05:35:01;;;;;;;5.73;4.80;;;;;;;15.36;100.00;96478.09;5083572;28;20196;-78
2022/08/20 05:37:28;;;;;;;7.23;5.70;;;;;;;15.39;100.00;96488.47;5082954;28;20197;-78
2022/08/20 05:39:57;;;;;;;8.27;5.60;;;;;;;15.38;100.00;96481.38;5083487;28;20196;-78
2022/08/20 05:42:25;;;;;;;6.20;5.53;;;;;;;15.42;100.00;96487.94;5082795;28;20228;-78
2022/08/20 05:44:52;;;;;;;7.03;6.33;;;;;;;15.45;100.00;96490.16;5082375;28;20206;-78
2022/08/20 05:47:26;;;;;;;7.37;5.87;;;;;;;15.47;100.00;96483.38;5078514;28;20216;-77
2022/08/20 05:49:53;;;;;;;7.90;5.90;;;;;;;15.50;100.00;96471.13;5084735;28;20208;-78
2022/08/20 05:52:20;;;;;;;6.83;6.13;;;;;;;15.60;100.00;96482.16;5079318;28;20198;-78
2022/08/20 05:54:48;;;;;;;7.87;5.73;;;;;;;15.59;100.00;96477.78;5077615;28;20217;-77
2022/08/20 05:57:19;;;;;;;7.07;5.60;;;;;;;15.60;100.00;96486.78;5079782;28;20297;-78
2022/08/20 05:59:46;;;;;;;7.17;5.73;;;;;;;15.60;100.00;96476.72;5083035;28;20205;-78
2022/08/20 06:04:54;;;;;;;9.47;5.90;;;;;;;15.74;100.00;96486.09;5076217;28;20211;-77
2022/08/20 06:07:21;;;;;;;6.83;6.00;;;;;;;15.74;100.00;96488.81;5082240;28;20235;-78
2022/08/20 06:09:49;;;;;;;6.10;5.50;;;;;;;15.78;100.00;96480.94;5073701;28;20209;-78
2022/08/20 06:12:18;;;;;;;6.43;5.47;;;;;;;15.76;100.00;96483.94;5083169;28;20197;-78
2022/08/20 06:14:46;;;;;;;9.20;5.27;;;;;;;15.74;100.00;96486.09;5082392;28;20298;-78
2022/08/20 06:17:16;;;;;;;6.60;5.93;;;;;;;15.79;100.00;96486.16;5086115;28;20197;-78
2022/08/20 06:19:45;;;;;;;6.77;5.10;;;;;;;15.83;100.00;96495.41;5074002;28;20209;-78
2022/08/20 06:22:13;;;;;;;8.47;5.83;;;;;;;15.85;100.00;96493.25;5085168;28;20213;-78
2022/08/20 06:24:40;;;;;;;6.77;5.37;;;;;;;15.89;100.00;96497.13;5080239;28;20205;-78
2022/08/20 06:27:07;;;;;;;7.87;6.10;;;;;;;15.94;100.00;96500.94;5078672;28;20228;-78
2022/08/20 06:29:36;;;;;;;8.37;6.20;;;;;;;16.02;100.00;96495.84;5082440;28;20204;-78
2022/08/20 06:32:03;;;;;;;7.30;6.47;;;;;;;16.04;100.00;96503.75;5076351;28;20209;-78
2022/08/20 06:34:30;;;;;;;7.97;5.77;;;;;;;15.95;100.00;96502.59;5077752;28;20210;-78
2022/08/20 06:36:58;;;;;;;8.57;6.27;;;;;;;15.93;100.00;96510.19;5086520;28;20200;-77
2022/08/20 06:39:27;;;;;;;8.13;6.13;;;;;;;15.94;100.00;96517.28;5076038;28;20288;-78
2022/08/20 06:41:57;;;;;;;9.03;6.10;;;;;;;15.95;100.00;96513.50;5082438;28;20210;-78
2022/08/20 06:44:24;;;;;;;7.63;6.37;;;;;;;15.98;100.00;96508.34;5074363;28;20197;-78
2022/08/20 06:46:54;;;;;;;7.97;5.97;;;;;;;16.14;100.00;96522.91;5079291;28;20216;-78
2022/08/20 06:49:21;;;;;;;6.67;5.90;;;;;;;16.24;100.00;96531.16;5068435;28;20205;-78
2022/08/20 06:51:48;;;;;;;10.07;6.30;;;;;;;16.32;100.00;96514.31;5075361;28;20201;-78
2022/08/20 06:54:16;;;;;;;7.77;6.63;;;;;;;16.44;100.00;96517.66;5078767;28;20213;-78
2022/08/20 06:56:43;;;;;;;10.23;5.60;;;;;;;16.60;100.00;96527.56;5087951;28;20266;-78
2022/08/20 06:59:10;;;;;;;7.93;5.67;;;;;;;16.72;100.00;96523.84;5081753;28;20284;-78
2022/08/20 07:01:37;;;;;;;8.13;5.93;;;;;;;16.79;100.00;96524.44;5075008;28;20201;-78
2022/08/20 07:04:07;;;;;;;8.73;5.67;;;;;;;16.87;100.00;96526.66;5077638;28;20205;-78
2022/08/20 07:06:34;;;;;;;6.83;4.80;;;;;;;16.76;100.00;96524.97;5079569;28;20238;-78
2022/08/20 07:09:01;;;;;;;5.40;4.90;;;;;;;16.76;100.00;96530.44;5075802;28;20215;-78
2022/08/20 07:11:28;;;;;;;7.57;5.50;;;;;;;16.76;100.00;96535.88;5085413;28;20208;-78
2022/08/20 07:13:56;;;;;;;7.07;4.97;;;;;;;16.82;100.00;96532.09;5082534;28;20200;-78
2022/08/20 07:16:24;;;;;;;6.43;4.43;;;;;;;16.90;100.00;96531.59;5082125;28;20335;-77
2022/08/20 07:18:51;;;;;;;7.83;5.33;;;;;;;17.01;100.00;96531.34;5080078;28;20230;-78
2022/08/20 07:21:20;;;;;;;5.57;4.80;;;;;;;17.07;100.00;96534.94;5078670;28;20219;-78
2022/08/20 07:23:48;;;;;;;9.90;4.87;;;;;;;17.16;100.00;96529.78;5077563;28;20295;-76
2022/08/20 07:26:15;;;;;;;5.93;4.43;;;;;;;17.19;100.00;96537.41;5078322;28;20205;-78
2022/08/20 07:28:42;;;;;;;5.50;4.57;;;;;;;17.23;100.00;96528.44;5077307;28;20204;-78
2022/08/20 07:33:54;;;;;;;5.33;4.67;;;;;;;17.36;100.00;96525.19;5075262;28;20288;-78
2022/08/20 07:36:22;;;;;;;4.77;4.27;;;;;;;17.44;100.00;96533.97;5079982;28;20205;-78
2022/08/20 07:38:49;;;;;;;5.83;4.70;;;;;;;17.42;100.00;96527.94;5080731;28;20298;-77
2022/08/20 07:41:17;;;;;;;7.30;4.50;;;;;;;17.51;100.00;96542.72;5073429;28;20208;-78
2022/08/20 07:43:45;;;;;;;4.90;4.13;;;;;;;17.48;100.00;96537.78;5070326;28;20223;-78
2022/08/20 07:46:14;;;;;;;4.37;3.97;;;;;;;17.57;100.00;96552.56;5071832;28;20269;-77
2022/08/20 07:48:45;;;;;;;6.30;4.77;;;;;;;17.71;100.00;96549.06;5068437;28;20223;-77
2022/08/20 07:51:13;;;;;;;5.97;4.67;;;;;;;17.78;100.00;96540.59;5064749;28;20189;-77
2022/08/20 07:53:42;;;;;;;5.10;4.23;;;;;;;17.90;100.00;96546.63;5064809;28;20223;-78
2022/08/20 07:56:11;;;;;;;5.37;4.37;;;;;;;18.00;100.00;96546.66;5089094;28;20240;-78
2022/08/20 07:58:41;;;;;;;5.67;4.80;;;;;;;18.10;100.00;96541.19;5075743;28;20685;-78
2022/08/20 08:01:09;;;;;;;5.03;4.50;;;;;;;18.14;100.00;96542.25;5080087;28;20217;-78
2022/08/20 08:03:36;;;;;;;5.60;4.60;;;;;;;18.21;100.00;96536.53;5069915;28;20207;-78
2022/08/20 08:06:04;;;;;;;6.70;4.50;;;;;;;18.24;100.00;96541.44;5087174;28;20197;-78
2022/08/20 08:08:34;;;;;;;4.68;4.18;;;;;;;18.19;100.00;96543.38;5084651;28;20275;-78
2022/08/20 08:11:03;;;;;;;7.18;4.63;;;;;;;18.22;100.00;96540.91;5074205;28;20204;-77
2022/08/20 08:13:34;;;;;;;5.80;4.05;;;;;;;18.19;100.00;96535.19;5079559;28;20291;-78
2022/08/20 08:16:05;;;;;;;5.43;4.67;;;;;;;18.05;100.00;96527.50;5080140;28;20240;-78
2022/08/20 08:18:36;;;;;;;6.40;4.63;;;;;;;17.87;100.00;96530.78;5071918;28;20262;-78
2022/08/20 08:21:06;;;;;;;5.10;4.60;;;;;;;17.86;100.00;96531.91;5073411;28;20211;-78
2022/08/20 08:23:34;;;;;;;6.07;4.80;;;;;;;17.85;100.00;96543.09;5077857;28;20258;-78
2022/08/20 08:26:03;;;;;;;6.80;4.40;;;;;;;17.97;100.00;96535.44;5088350;28;20208;-79
2022/08/20 08:28:30;;;;;;;6.83;4.70;;;;;;;18.10;100.00;96533.00;5080886;28;20310;-77
2022/08/20 08:30:57;;;;;;;4.63;4.13;;;;;;;18.31;100.00;96530.22;5071244;28;20203;-78
2022/08/20 08:33:31;;;;;;;6.40;4.30;;;;;;;18.49;100.00;96529.66;5090634;28;20284;-78
2022/08/20 08:36:01;;;;;;;4.93;4.43;;;;;;;18.58;100.00;96522.56;5072841;28;20208;-77
2022/08/20 08:38:29;;;;;;;5.37;4.03;;;;;;;18.84;100.00;96524.16;5074226;28;20201;-77
2022/08/20 08:41:02;;;;;;;4.25;3.88;;;;;;;19.30;100.00;96512.22;5065686;28;20487;-77
2022/08/20 08:43:31;;;;;;;4.75;4.05;;;;;;;19.48;100.00;96517.88;5069295;28;20205;-78
2022/08/20 08:46:02;;;;;;;4.60;4.18;;;;;;;19.48;100.00;96512.38;5070120;28;20209;-78
2022/08/20 08:48:36;;;;;;;4.60;4.20;;;;;;;19.48;100.00;96517.06;5074307;28;20217;-78
2022/08/20 08:51:11;;;;;;;5.18;4.07;;;;;;;19.51;100.00;96520.03;5077455;28;20211;-77
2022/08/20 08:53:42;;;;;;;4.20;3.80;;;;;;;19.58;100.00;96517.81;5078315;28;20226;-78
2022/08/20 08:56:09;;;;;;;4.50;4.00;;;;;;;19.65;100.00;96512.84;5080283;28;20386;-78
2022/08/20 08:58:38;;;;;;;5.32;4.07;;;;;;;19.65;100.00;96518.31;5077615;28;20205;-78
2022/08/20 09:01:12;;;;;;;4.43;4.03;;;;;;;19.73;100.00;96518.84;5071106;28;20375;-78
2022/08/20 09:03:42;;;;;;;4.50;4.10;;;;;;;19.98;100.00;96515.91;5080637;28;20224;-78
2022/08/20 09:06:13;;;;;;;4.40;4.00;;;;;;;20.16;100.00;96512.44;5081657;28;20328;-78
2022/08/20 09:08:46;;;;;;;5.30;3.70;;;;;;;20.18;100.00;96515.72;5079171;28;20221;-78
2022/08/20 09:11:15;;;;;;;4.30;3.95;;;;;;;20.14;100.00;96525.66;5077214;28;20215;-78
2022/08/20 09:13:43;;;;;;;4.80;4.30;;;;;;;20.15;100.00;96526.47;5077600;28;20219;-79
2022/08/20 09:16:12;;;;;;;5.00;4.50;;;;;;;20.14;100.00;96531.13;5076793;28;20224;-78
2022/08/20 09:18:39;;;;;;;4.53;4.00;;;;;;;20.17;100.00;96526.97;5077728;28;20212;-78
2022/08/20 09:21:08;;;;;;;6.15;4.53;;;;;;;19.86;100.00;96529.16;5078497;28;20197;-78
2022/08/20 09:23:35;;;;;;;5.00;4.50;;;;;;;19.74;100.00;96525.94;5076725;28;20219;-78
2022/08/20 09:26:02;;;;;;;6.15;4.75;;;;;;;19.74;100.00;96520.44;5076321;28;20211;-78
2022/08/20 09:28:29;;;;;;;5.60;4.90;;;;;;;19.74;100.00;96521.25;5082779;28;20243;-78
2022/08/20 09:30:57;;;;;;;6.10;4.53;;;;;;;19.73;100.00;96519.66;5075167;28;20207;-79
2022/08/20 09:33:25;;;;;;;5.35;4.85;;;;;;;19.71;100.00;96524.59;5091087;28;20209;-78
2022/08/20 09:35:52;;;;;;;6.15;4.82;;;;;;;19.71;100.00;96513.63;5075381;28;20202;-78
2022/08/20 09:38:19;;;;;;;5.55;4.90;;;;;;;19.77;100.00;96520.72;5077510;28;20212;-79
2022/08/20 09:40:46;;;;;;;5.72;5.07;;;;;;;19.78;100.00;96516.06;5079481;28;20189;-79
2022/08/20 09:43:14;;;;;;;7.35;5.07;;;;;;;19.72;100.00;96522.69;5064645;28;20213;-78
2022/08/20 09:45:41;;;;;;;6.35;4.85;;;;;;;19.74;100.00;96517.72;5079170;28;20201;-79
2022/08/20 09:48:09;;;;;;;5.30;4.80;;;;;;;19.78;100.00;96511.41;5082086;28;20803;-79
2022/08/20 09:50:37;;;;;;;5.68;4.72;;;;;;;19.74;100.00;96520.44;5073309;28;20197;-78
2022/08/20 09:53:05;;;;;;;5.22;4.72;;;;;;;19.74;100.00;96517.72;5078428;28;20205;-80
2022/08/20 09:55:35;;;;;;;6.63;5.18;;;;;;;19.70;100.00;96513.91;5067453;28;20263;-78
2022/08/20 09:58:05;;;;;;;6.93;4.90;;;;;;;19.69;100.00;96512.28;5075770;28;20213;-79
2022/08/20 10:00:33;;;;;;;7.13;4.72;;;;;;;19.65;100.00;96515.56;5073319;28;20233;-78
2022/08/20 10:03:02;;;;;;;4.93;4.53;;;;;;;19.64;100.00;96516.69;5072310;28;20209;-79
2022/08/20 10:05:30;;;;;;;5.47;4.97;;;;;;;19.61;100.00;96517.25;5072786;28;20218;-79
2022/08/20 10:07:57;;;;;;;7.55;4.78;;;;;;;19.60;100.00;96512.88;5074343;28;20220;-79
2022/08/20 10:10:24;;;;;;;4.68;4.28;;;;;;;19.65;100.00;96509.28;5081507;28;20227;-78
2022/08/20 10:12:51;;;;;;;6.07;5.47;;;;;;;19.70;100.00;96508.44;5074984;28;20215;-79
2022/08/20 10:15:18;;;;;;;5.93;5.25;;;;;;;19.72;100.00;96511.72;5083158;28;20235;-79
2022/08/20 10:17:45;;;;;;;6.95;5.63;;;;;;;19.59;100.00;96502.19;5077388;28;20272;-79
2022/08/20 10:20:14;;;;;;;5.78;5.03;;;;;;;19.50;100.00;96507.44;5078955;28;20296;-79
2022/08/20 10:22:42;;;;;;;5.75;5.15;;;;;;;19.47;100.00;96507.19;5077212;28;20219;-79
2022/08/20 10:25:10;;;;;;;6.28;5.13;;;;;;;19.52;100.00;96501.69;5077265;28;20306;-79
2022/08/20 10:27:38;;;;;;;5.70;5.13;;;;;;;19.57;100.00;96505.22;5076209;28;20243;-79
2022/08/20 10:30:07;;;;;;;7.03;5.30;;;;;;;19.72;100.00;96509.81;5073347;28;20263;-78
2022/08/20 10:32:34;;;;;;;5.80;5.18;;;;;;;19.88;100.00;96502.28;5076842;28;20208;-79
2022/08/20 10:35:02;;;;;;;6.82;5.22;;;;;;;19.97;100.00;96504.13;5079055;28;20213;-79
2022/08/20 10:37:29;;;;;;;5.90;5.03;;;;;;;20.06;100.00;96503.53;5079696;28;20200;-78
2022/08/20 10:39:57;;;;;;;5.00;4.60;;;;;;;20.15;100.00;96494.41;5086617;28;20233;-79
2022/08/20 10:42:24;;;;;;;6.50;5.22;;;;;;;20.25;100.00;96499.75;5077441;28;20209;-78
2022/08/20 10:44:51;;;;;;;6.57;5.20;;;;;;;20.25;100.00;96494.28;5072836;28;20236;-78
2022/08/20 10:47:22;;;;;;;6.35;5.10;;;;;;;20.30;100.00;96494.25;5077740;28;20211;-79
2022/08/20 10:49:50;;;;;;;5.28;4.78;;;;;;;20.38;100.00;96496.41;5082010;28;20300;-79
2022/08/20 10:52:17;;;;;;;6.80;5.75;;;;;;;20.50;100.00;96495.19;5088515;28;20200;-78
2022/08/20 10:54:45;;;;;;;7.55;5.32;;;;;;;20.65;100.00;96493.09;5077997;28;20223;-79
2022/08/20 10:57:16;;;;;;;5.13;4.63;;;;;;;20.84;100.00;96495.09;5076873;28;20236;-79
2022/08/20 10:59:46;;;;;;;5.82;5.22;;;;;;;20.74;100.00;96485.06;5086539;28;20217;-79
2022/08/20 11:02:15;;;;;;;6.28;4.82;;;;;;;20.70;100.00;96492.22;5089394;28;20272;-78
2022/08/20 11:04:43;;;;;;;8.73;6.03;;;;;;;20.74;100.00;96485.06;5092194;28;20244;-79
2022/08/20 11:07:15;;;;;;;5.70;5.10;;;;;;;20.72;100.00;96484.53;5087033;28;20200;-79
2022/08/20 11:09:43;;;;;;;5.40;4.90;;;;;;;20.81;100.00;96493.75;5089078;28;20197;-80
2022/08/20 11:12:10;;;;;;;5.43;4.78;;;;;;;20.66;100.00;96477.47;5075681;28;20224;-79
2022/08/20 11:14:39;;;;;;;7.07;5.20;;;;;;;20.68;100.00;96475.22;5078275;28;20240;-79
2022/08/20 11:17:07;;;;;;;5.20;4.70;;;;;;;20.72;100.00;96477.13;5071135;28;20205;-78
2022/08/20 11:19:39;;;;;;;7.10;5.57;;;;;;;20.83;100.00;96471.50;5073725;28;20206;-79
2022/08/20 11:22:06;;;;;;;5.53;4.93;;;;;;;20.76;100.00;96471.84;5071387;28;20287;-78
2022/08/20 11:24:33;;;;;;;7.53;5.38;;;;;;;20.80;100.00;96472.91;5073989;28;20304;-79
2022/08/20 11:27:01;;;;;;;5.28;4.78;;;;;;;20.80;100.00;96474.84;5072260;28;20209;-78
2022/08/20 11:29:28;;;;;;;5.68;4.43;;;;;;;20.89;100.00;96479.38;5079561;28;20314;-80
2022/08/20 11:31:57;;;;;;;4.60;4.20;;;;;;;20.87;100.00;96478.84;5084180;28;20292;-80
2022/08/20 11:34:24;;;;;;;5.13;4.65;;;;;;;20.96;100.00;96482.59;5079560;28;20197;-79
2022/08/20 11:36:52;;;;;;;4.60;4.20;;;;;;;21.08;100.00;96485.75;5089630;28;20206;-79